createdAt,value
2018-10-18T00:01:18.029Z,101875.91
2018-10-18T00:03:48.054Z,101881.52
2018-10-18T00:06:18.036Z,101878.59
2018-10-18T00:08:47.909Z,101879.70
2018-10-18T00:11:17.837Z,101885.11
2018-10-18T00:13:47.728Z,101880.61
2018-10-18T00:16:17.746Z,101883.30
2018-10-18T00:18:48.166Z,101881.13
2018-10-18T00:21:18.098Z,101883.81
2018-10-18T00:23:48.032Z,101887.14
2018-10-18T00:26:18.120Z,101882.12
2018-10-18T00:28:47.938Z,101895.23
2018-10-18T00:31:17.839Z,101890.64
2018-10-18T00:33:48.105Z,101892.27
2018-10-18T00:36:18.397Z,101895.28
2018-10-18T00:38:48.384Z,101890.20
2018-10-18T00:41:18.437Z,101891.75
2018-10-18T00:43:48.226Z,101894.23
2018-10-18T00:46:18.334Z,101895.58
2018-10-18T00:48:48.275Z,101902.33
2018-10-18T00:51:18.215Z,101902.81
2018-10-18T00:53:48.095Z,101904.49
2018-10-18T00:56:17.907Z,101902.14
2018-10-18T00:58:47.720Z,101905.59
2018-10-18T01:01:17.698Z,101910.14
2018-10-18T01:03:47.792Z,101904.58
2018-10-18T01:06:17.892Z,101909.38
2018-10-18T01:08:48.187Z,101914.20
2018-10-18T01:11:18.150Z,101914.45
2018-10-18T01:13:48.383Z,101917.13
2018-10-18T01:16:18.179Z,101914.50
2018-10-18T01:18:48.395Z,101912.38
2018-10-18T01:21:18.189Z,101914.30
2018-10-18T01:23:48.078Z,101917.98
2018-10-18T01:26:18.047Z,101923.80
2018-10-18T01:28:47.859Z,101921.91
2018-10-18T01:31:17.694Z,101923.06
2018-10-18T01:33:47.666Z,101926.22
2018-10-18T01:36:17.657Z,101930.48
2018-10-18T01:38:47.566Z,101924.31
2018-10-18T01:41:17.481Z,101935.28
2018-10-18T01:43:47.343Z,101928.72
2018-10-18T01:46:17.298Z,101935.91
2018-10-18T01:48:47.308Z,101925.41
2018-10-18T01:51:17.250Z,101932.13
2018-10-18T01:53:47.108Z,101932.70
2018-10-18T01:56:17.222Z,101932.36
2018-10-18T01:58:46.994Z,101927.57
2018-10-18T02:01:17.355Z,101931.07
2018-10-18T02:03:47.550Z,101929.19
2018-10-18T02:06:17.697Z,101931.93
2018-10-18T02:08:47.500Z,101933.75
2018-10-18T02:11:17.297Z,101928.38
2018-10-18T02:13:47.532Z,101926.77
2018-10-18T02:16:17.628Z,101931.92
2018-10-18T02:18:47.813Z,101936.95
2018-10-18T02:21:17.750Z,101935.84
2018-10-18T02:23:47.701Z,101935.03
2018-10-18T02:26:17.752Z,101935.28
2018-10-18T02:28:47.650Z,101936.02
2018-10-18T02:31:17.526Z,101936.09
2018-10-18T02:33:47.497Z,101940.58
2018-10-18T02:36:17.552Z,101941.92
2018-10-18T02:38:47.377Z,101936.83
2018-10-18T02:41:17.218Z,101935.97
2018-10-18T02:43:47.280Z,101937.95
2018-10-18T02:46:17.601Z,101933.92
2018-10-18T02:48:47.611Z,101940.86
2018-10-18T02:51:17.570Z,101942.97
2018-10-18T02:53:47.560Z,101943.02
2018-10-18T02:56:17.464Z,101946.41
2018-10-18T02:58:47.349Z,101951.25
2018-10-18T03:01:17.293Z,101946.19
2018-10-18T03:03:47.198Z,101940.16
2018-10-18T03:06:17.465Z,101932.75
2018-10-18T03:08:47.118Z,101936.95
2018-10-18T03:11:17.089Z,101935.63
2018-10-18T03:13:46.869Z,101942.66
2018-10-18T03:16:16.983Z,101943.53
2018-10-18T03:18:47.080Z,101947.03
2018-10-18T03:21:16.995Z,101948.08
2018-10-18T03:23:46.892Z,101951.26
2018-10-18T03:26:16.792Z,101956.62
2018-10-18T03:28:46.609Z,101954.80
2018-10-18T03:31:16.752Z,101953.70
2018-10-18T03:33:46.539Z,101951.48
2018-10-18T03:36:17.102Z,101953.86
2018-10-18T03:38:47.023Z,101957.09
2018-10-18T03:41:17.025Z,101967.30
2018-10-18T03:43:46.963Z,101963.45
2018-10-18T03:46:16.857Z,101961.81
2018-10-18T03:48:47.016Z,101966.33
2018-10-18T03:51:17.085Z,101967.25
2018-10-18T03:53:47.395Z,101974.24
2018-10-18T03:56:17.205Z,101971.51
2018-10-18T03:58:47.208Z,101969.06
2018-10-18T04:01:17.307Z,101971.03
2018-10-18T04:03:47.205Z,101971.51
2018-10-18T04:06:17.820Z,101975.72
2018-10-18T04:08:47.733Z,101970.16
2018-10-18T04:11:17.522Z,101975.83
2018-10-18T04:13:47.700Z,101976.53
2018-10-18T04:16:17.699Z,101976.88
2018-10-18T04:18:47.738Z,101978.93
2018-10-18T04:21:17.736Z,101980.84
2018-10-18T04:23:47.748Z,101976.48
2018-10-18T04:26:17.691Z,101981.03
2018-10-18T04:28:47.664Z,101980.79
2018-10-18T04:31:17.480Z,101976.58
2018-10-18T04:33:47.439Z,101969.52
2018-10-18T04:36:17.568Z,101970.93
2018-10-18T04:38:47.345Z,101977.69
2018-10-18T04:41:17.205Z,101978.20
2018-10-18T04:43:47.063Z,101983.59
2018-10-18T04:46:16.930Z,101986.57
2018-10-18T04:48:46.967Z,101985.98
2018-10-18T04:51:17.626Z,101987.04
2018-10-18T04:53:47.437Z,101989.53
2018-10-18T04:56:17.867Z,101991.34
2018-10-18T04:58:47.900Z,101982.23
2018-10-18T05:01:17.958Z,101984.94
2018-10-18T05:03:47.717Z,101991.39
2018-10-18T05:06:17.612Z,101990.11
2018-10-18T05:08:47.675Z,101993.86
2018-10-18T05:11:17.603Z,101997.88
2018-10-18T05:13:47.505Z,101993.32
2018-10-18T05:16:17.420Z,101996.53
2018-10-18T05:18:47.425Z,101997.83
2018-10-18T05:21:17.455Z,101999.12
2018-10-18T05:23:47.346Z,101997.20
2018-10-18T05:26:17.273Z,102000.85
2018-10-18T05:28:47.253Z,101999.75
2018-10-18T05:31:17.300Z,101999.31
2018-10-18T05:33:47.103Z,101998.23
2018-10-18T05:36:16.981Z,101997.40
2018-10-18T05:38:46.976Z,102003.83
2018-10-18T05:41:16.890Z,102007.33
2018-10-18T05:43:47.066Z,102012.17
2018-10-18T05:46:17.172Z,102016.33
2018-10-18T05:48:47.218Z,102017.97
2018-10-18T05:51:17.194Z,102015.09
2018-10-18T05:53:47.248Z,102011.31
2018-10-18T05:56:17.446Z,102011.56
2018-10-18T05:58:47.306Z,102013.95
2018-10-18T06:01:17.303Z,102017.53
2018-10-18T06:03:47.187Z,102018.02
2018-10-18T06:06:17.066Z,102023.14
2018-10-18T06:08:47.004Z,102021.31
2018-10-18T06:11:31.150Z,102016.92
2018-10-18T06:14:01.058Z,102021.80
2018-10-18T06:16:31.206Z,102027.73
2018-10-18T06:19:01.245Z,102026.11
2018-10-18T06:21:31.059Z,102032.73
2018-10-18T06:24:00.996Z,102035.66
2018-10-18T06:26:30.902Z,102038.33
2018-10-18T06:29:00.990Z,102043.95
2018-10-18T06:31:31.093Z,102041.08
2018-10-18T06:34:01.135Z,102038.87
2018-10-18T06:36:30.943Z,102042.90
2018-10-18T06:39:00.948Z,102049.02
2018-10-18T06:41:30.913Z,102049.31
2018-10-18T06:44:00.841Z,102049.27
2018-10-18T06:46:30.950Z,102055.97
2018-10-18T06:49:01.001Z,102062.39
2018-10-18T06:51:30.945Z,102063.53
2018-10-18T06:54:00.739Z,102064.83
2018-10-18T06:56:30.872Z,102062.44
2018-10-18T06:59:00.652Z,102064.27
2018-10-18T07:01:30.622Z,102070.93
2018-10-18T07:04:00.559Z,102065.27
2018-10-18T07:06:30.390Z,102065.94
2018-10-18T07:09:00.341Z,102067.56
2018-10-18T07:11:30.333Z,102075.33
2018-10-18T07:14:00.760Z,102078.55
2018-10-18T07:16:31.492Z,102083.14
2018-10-18T07:19:01.394Z,102081.63
2018-10-18T07:21:31.291Z,102088.14
2018-10-18T07:24:01.723Z,102084.31
2018-10-18T07:26:31.931Z,102091.35
2018-10-18T07:29:01.946Z,102084.44
2018-10-18T07:31:31.893Z,102079.37
2018-10-18T07:34:02.189Z,102084.00
2018-10-18T07:36:32.491Z,102083.75
2018-10-18T07:39:02.564Z,102095.65
2018-10-18T07:41:32.517Z,102100.02
2018-10-18T07:44:02.827Z,102098.14
2018-10-18T07:46:32.664Z,102101.16
2018-10-18T07:49:02.896Z,102106.25
2018-10-18T07:51:32.709Z,102104.87
2018-10-18T07:54:02.531Z,102102.13
2018-10-18T07:56:32.866Z,102108.84
2018-10-18T07:59:03.291Z,102108.78
2018-10-18T08:01:33.206Z,102112.55
2018-10-18T08:04:03.155Z,102119.51
2018-10-18T08:06:33.489Z,102112.02
2018-10-18T08:09:03.415Z,102125.44
2018-10-18T08:11:33.292Z,102124.40
2018-10-18T08:14:03.279Z,102125.13
2018-10-18T08:16:33.370Z,102120.56
2018-10-18T08:19:03.771Z,102118.98
2018-10-18T08:21:33.838Z,102125.94
2018-10-18T08:24:04.903Z,102122.66
2018-10-18T08:26:34.885Z,102124.52
2018-10-18T08:29:05.373Z,102122.38
2018-10-18T08:31:35.531Z,102131.97
2018-10-18T08:34:05.483Z,102123.64
2018-10-18T08:36:35.567Z,102123.56
2018-10-18T08:39:07.718Z,102126.45
2018-10-18T08:41:37.696Z,102123.14
2018-10-18T08:44:07.789Z,102129.34
2018-10-18T08:46:37.612Z,102131.64
2018-10-18T08:49:07.686Z,102129.95
2018-10-18T08:51:37.552Z,102135.14
2018-10-18T08:54:07.795Z,102136.16
2018-10-18T08:56:37.733Z,102134.30
2018-10-18T08:59:07.856Z,102140.72
2018-10-18T09:01:37.725Z,102146.30
2018-10-18T09:04:07.736Z,102148.20
2018-10-18T09:06:37.599Z,102143.94
2018-10-18T09:09:09.738Z,102144.71
2018-10-18T09:11:39.813Z,102145.88
2018-10-18T09:14:09.883Z,102149.15
2018-10-18T09:16:39.704Z,102142.81
2018-10-18T09:19:09.593Z,102144.50
2018-10-18T09:21:40.488Z,102145.04
2018-10-18T09:24:10.483Z,102152.20
2018-10-18T09:26:40.342Z,102152.84
2018-10-18T09:29:10.207Z,102153.36
2018-10-18T09:31:40.204Z,102154.69
2018-10-18T09:34:10.100Z,102148.20
2018-10-18T09:36:40.123Z,102150.73
2018-10-18T09:39:10.541Z,102152.77
2018-10-18T09:41:40.375Z,102156.37
2018-10-18T09:44:10.381Z,102155.37
2018-10-18T09:46:40.255Z,102140.67
2018-10-18T09:49:10.326Z,102143.11
2018-10-18T09:51:40.374Z,102146.41
2018-10-18T09:54:10.480Z,102149.54
2018-10-18T09:56:40.415Z,102160.08
2018-10-18T09:59:10.360Z,102162.98
2018-10-18T10:01:45.349Z,102160.65
2018-10-18T10:04:15.404Z,102159.83
2018-10-18T10:06:45.266Z,102160.45
2018-10-18T10:09:15.228Z,102161.20
2018-10-18T10:11:45.584Z,102153.04
2018-10-18T10:14:15.329Z,102153.57
2018-10-18T10:16:45.070Z,102146.14
2018-10-18T10:19:15.089Z,102152.66
2018-10-18T10:21:44.922Z,102157.86
2018-10-18T10:24:14.903Z,102164.12
2018-10-18T10:26:45.139Z,102163.66
2018-10-18T10:29:15.114Z,102166.88
2018-10-18T10:31:45.257Z,102166.56
2018-10-18T10:34:16.043Z,102162.13
2018-10-18T10:36:46.019Z,102168.58
2018-10-18T10:39:15.873Z,102165.87
2018-10-18T10:41:45.735Z,102160.89
2018-10-18T10:44:15.774Z,102157.09
2018-10-18T10:46:45.677Z,102155.71
2018-10-18T10:49:15.994Z,102150.35
2018-10-18T10:51:45.978Z,102149.97
2018-10-18T10:54:15.833Z,102139.70
2018-10-18T10:56:45.806Z,102142.94
2018-10-18T10:59:17.806Z,102148.83
2018-10-18T11:01:47.675Z,102135.69
2018-10-18T11:04:17.591Z,102138.89
2018-10-18T11:06:47.557Z,102146.47
2018-10-18T11:09:17.750Z,102132.42
2018-10-18T11:11:47.550Z,102132.51
2018-10-18T11:14:17.842Z,102129.49
2018-10-18T11:16:47.694Z,102127.48
2018-10-18T11:19:17.547Z,102130.78
2018-10-18T11:21:47.422Z,102125.22
2018-10-18T11:24:17.407Z,102124.81
2018-10-18T11:26:47.401Z,102127.06
2018-10-18T11:29:17.791Z,102122.57
2018-10-18T11:31:48.069Z,102111.65
2018-10-18T11:34:18.050Z,102115.90
2018-10-18T11:36:48.409Z,102117.78
2018-10-18T11:39:18.262Z,102124.20
2018-10-18T11:41:48.578Z,102121.16
2018-10-18T11:44:18.809Z,102121.52
2018-10-18T11:46:48.526Z,102127.90
2018-10-18T11:49:18.574Z,102122.98
2018-10-18T11:51:48.905Z,102121.69
2018-10-18T11:54:18.658Z,102123.79
2018-10-18T11:56:48.826Z,102121.31
2018-10-18T11:59:18.812Z,102122.87
2018-10-18T12:01:52.724Z,102117.84
2018-10-18T12:04:22.809Z,102122.55
2018-10-18T12:06:52.781Z,102111.45
2018-10-18T12:09:22.769Z,102115.33
2018-10-18T12:11:52.628Z,102108.08
2018-10-18T12:14:22.501Z,102113.66
2018-10-18T12:16:52.517Z,102115.17
2018-10-18T12:19:22.522Z,102113.46
2018-10-18T12:21:52.328Z,102115.30
2018-10-18T12:24:22.623Z,102120.36
2018-10-18T12:26:52.734Z,102115.91
2018-10-18T12:29:22.527Z,102117.48
2018-10-18T12:31:52.588Z,102109.14
2018-10-18T12:34:22.653Z,102111.31
2018-10-18T12:36:52.788Z,102114.79
2018-10-18T12:39:22.841Z,102113.41
2018-10-18T12:41:52.960Z,102113.89
2018-10-18T12:44:22.769Z,102117.21
2018-10-18T12:46:52.543Z,102110.92
2018-10-18T12:49:22.595Z,102118.98
2018-10-18T12:51:52.657Z,102128.11
2018-10-18T12:54:22.925Z,102122.59
2018-10-18T12:56:52.806Z,102117.35
2018-10-18T12:59:22.828Z,102127.16
2018-10-18T13:01:53.192Z,102132.14
2018-10-18T13:04:23.095Z,102133.75
2018-10-18T13:06:52.973Z,102134.17
2018-10-18T13:09:22.946Z,102134.05
2018-10-18T13:11:52.794Z,102128.09
2018-10-18T13:14:22.846Z,102136.88
2018-10-18T13:16:52.856Z,102139.56
2018-10-18T13:19:23.214Z,102141.66
2018-10-18T13:21:53.187Z,102146.61
2018-10-18T13:24:23.734Z,102139.14
2018-10-18T13:26:53.867Z,102147.89
2018-10-18T13:29:24.160Z,102145.31
2018-10-18T13:31:54.224Z,102149.02
2018-10-18T13:34:24.003Z,102157.40
2018-10-18T13:36:54.188Z,102148.69
2018-10-18T13:39:24.180Z,102143.98
2018-10-18T13:41:54.249Z,102146.85
2018-10-18T13:44:24.169Z,102144.72
2018-10-18T13:46:54.054Z,102133.56
2018-10-18T13:49:24.244Z,102134.27
2018-10-18T13:51:54.284Z,102131.95
2018-10-18T13:54:24.221Z,102128.77
2018-10-18T13:56:54.285Z,102129.36
2018-10-18T13:59:40.908Z,102122.45
2018-10-18T14:02:11.234Z,102125.98
2018-10-18T14:04:41.114Z,102126.50
2018-10-18T14:07:11.337Z,102122.81
2018-10-18T14:09:41.412Z,102112.27
2018-10-18T14:12:11.767Z,102117.46
2018-10-18T14:14:42.481Z,102117.55
2018-10-18T14:17:12.489Z,102122.89
2018-10-18T14:19:42.662Z,102116.48
2018-10-18T14:22:12.479Z,102121.50
2018-10-18T14:24:42.654Z,102112.23
2018-10-18T14:27:12.489Z,102115.29
2018-10-18T14:29:42.446Z,102120.98
2018-10-18T14:32:12.433Z,102122.61
2018-10-18T14:34:42.395Z,102116.80
2018-10-18T14:37:12.347Z,102110.80
2018-10-18T14:39:42.269Z,102117.59
2018-10-18T14:42:12.382Z,102112.34
2018-10-18T14:44:42.626Z,102110.43
2018-10-18T14:47:12.574Z,102111.86
2018-10-18T14:49:42.541Z,102111.57
2018-10-18T14:52:12.775Z,102114.83
2018-10-18T14:54:42.781Z,102114.06
2018-10-18T14:57:12.989Z,102118.09
2018-10-18T14:59:43.357Z,102114.23
2018-10-18T15:02:13.842Z,102113.69
2018-10-18T15:04:43.693Z,102117.72
2018-10-18T15:07:14.008Z,102116.77
2018-10-18T15:09:43.897Z,102114.50
2018-10-18T15:12:13.871Z,102117.64
2018-10-18T15:14:43.920Z,102122.61
2018-10-18T15:17:13.995Z,102122.55
2018-10-18T15:19:44.331Z,102126.72
2018-10-18T15:22:14.365Z,102128.37
2018-10-18T15:24:44.431Z,102129.02
2018-10-18T15:27:14.572Z,102127.10
2018-10-18T15:29:44.427Z,102123.23
2018-10-18T15:32:14.529Z,102127.00
2018-10-18T15:34:44.317Z,102131.30
2018-10-18T15:37:14.622Z,102124.34
2018-10-18T15:39:44.520Z,102136.52
2018-10-18T15:42:14.890Z,102131.05
2018-10-18T15:44:44.878Z,102136.34
2018-10-18T15:47:15.036Z,102142.05
2018-10-18T15:49:45.061Z,102139.25
2018-10-18T15:52:15.052Z,102150.20
2018-10-18T15:54:45.065Z,102143.97
2018-10-18T15:57:15.062Z,102150.25
2018-10-18T15:59:45.000Z,102140.64
2018-10-18T16:02:15.101Z,102149.22
2018-10-18T16:04:45.207Z,102151.95
2018-10-18T16:07:15.267Z,102156.54
2018-10-18T16:09:45.060Z,102159.19
2018-10-18T16:12:14.963Z,102151.91
2018-10-18T16:14:45.184Z,102159.92
2018-10-18T16:17:15.385Z,102158.30
2018-10-18T16:19:45.519Z,102158.42
2018-10-18T16:22:15.374Z,102158.00
2018-10-18T16:24:45.764Z,102161.74
2018-10-18T16:27:15.773Z,102160.68
2018-10-18T16:29:45.565Z,102162.02
2018-10-18T16:32:15.494Z,102173.85
2018-10-18T16:34:45.631Z,102170.63
2018-10-18T16:37:15.797Z,102161.24
2018-10-18T16:39:46.106Z,102170.81
2018-10-18T16:42:16.330Z,102170.03
2018-10-18T16:44:46.246Z,102177.17
2018-10-18T16:47:16.088Z,102177.00
2018-10-18T16:49:46.465Z,102183.24
2018-10-18T16:52:16.514Z,102183.77
2018-10-18T16:54:46.413Z,102184.83
2018-10-18T16:57:16.454Z,102178.19
2018-10-18T16:59:46.689Z,102191.02
2018-10-18T17:02:17.326Z,102185.39
2018-10-18T17:04:47.705Z,102183.49
2018-10-18T17:07:17.618Z,102183.49
2018-10-18T17:09:47.781Z,102183.55
2018-10-18T17:12:17.982Z,102182.73
2018-10-18T17:14:47.923Z,102187.27
2018-10-18T17:17:18.016Z,102190.52
2018-10-18T17:19:48.112Z,102186.20
2018-10-18T17:22:18.025Z,102188.64
2018-10-18T17:24:48.197Z,102190.52
2018-10-18T17:27:18.358Z,102193.45
2018-10-18T17:29:48.516Z,102195.56
2018-10-18T17:32:19.054Z,102197.22
2018-10-18T17:34:49.104Z,102193.44
2018-10-18T17:37:19.124Z,102197.02
2018-10-18T17:39:48.987Z,102202.94
2018-10-18T17:42:18.987Z,102200.48
2018-10-18T17:44:48.860Z,102205.83
2018-10-18T17:47:18.851Z,102197.30
2018-10-18T17:49:48.910Z,102206.94
2018-10-18T17:52:18.868Z,102204.80
2018-10-18T17:54:48.758Z,102209.59
2018-10-18T17:57:18.575Z,102214.69
2018-10-18T17:59:48.566Z,102213.12
2018-10-18T18:02:18.566Z,102209.87
2018-10-18T18:04:48.315Z,102209.09
2018-10-18T18:07:18.200Z,102207.78
2018-10-18T18:09:48.116Z,102209.63
2018-10-18T18:12:18.136Z,102209.07
2018-10-18T18:14:47.939Z,102207.72
2018-10-18T18:17:17.923Z,102210.41
2018-10-18T18:19:47.737Z,102209.37
2018-10-18T18:22:17.609Z,102217.70
2018-10-18T18:24:47.538Z,102209.39
2018-10-18T18:27:17.844Z,102213.39
2018-10-18T18:29:47.799Z,102216.89
2018-10-18T18:32:17.539Z,102226.84
2018-10-18T18:34:47.396Z,102229.54
2018-10-18T18:37:17.257Z,102234.09
2018-10-18T18:39:47.202Z,102240.49
2018-10-18T18:42:17.141Z,102233.27
2018-10-18T18:44:47.127Z,102231.61
2018-10-18T18:47:16.938Z,102237.58
2018-10-18T18:49:47.063Z,102240.75
2018-10-18T18:52:16.942Z,102243.71
2018-10-18T18:54:46.903Z,102238.38
2018-10-18T18:57:16.648Z,102240.25
2018-10-18T18:59:46.537Z,102244.80
2018-10-18T19:02:16.454Z,102245.86
2018-10-18T19:04:46.229Z,102246.97
2018-10-18T19:07:16.266Z,102243.47
2018-10-18T19:09:46.112Z,102249.64
2018-10-18T19:12:16.017Z,102250.71
2018-10-18T19:14:45.994Z,102257.68
2018-10-18T19:17:15.983Z,102255.83
2018-10-18T19:19:45.865Z,102258.76
2018-10-18T19:22:15.660Z,102254.20
2018-10-18T19:24:45.570Z,102257.42
2018-10-18T19:27:15.488Z,102260.62
2018-10-18T19:29:45.318Z,102255.00
2018-10-18T19:32:15.416Z,102259.83
2018-10-18T19:34:45.523Z,102257.42
2018-10-18T19:37:15.560Z,102265.23
2018-10-18T19:39:45.443Z,102266.83
2018-10-18T19:42:15.372Z,102272.20
2018-10-18T19:44:45.585Z,102268.41
2018-10-18T19:47:15.541Z,102270.25
2018-10-18T19:49:45.646Z,102277.81
2018-10-18T19:52:15.540Z,102273.53
2018-10-18T19:54:45.578Z,102274.85
2018-10-18T19:57:15.750Z,102274.88
2018-10-18T19:59:45.672Z,102277.83
2018-10-18T20:02:15.675Z,102281.33
2018-10-18T20:04:45.656Z,102285.08
2018-10-18T20:07:15.607Z,102289.34
2018-10-18T20:09:45.552Z,102288.55
2018-10-18T20:12:15.509Z,102291.77
2018-10-18T20:14:45.358Z,102290.96
2018-10-18T20:17:15.258Z,102290.98
2018-10-18T20:19:45.322Z,102292.08
2018-10-18T20:22:15.147Z,102297.72
2018-10-18T20:24:45.190Z,102303.89
2018-10-18T20:27:15.139Z,102296.95
2018-10-18T20:29:44.915Z,102299.36
2018-10-18T20:32:14.877Z,102297.70
2018-10-18T20:34:44.972Z,102298.51
2018-10-18T20:37:14.853Z,102284.58
2018-10-18T20:39:44.765Z,102292.90
2018-10-18T20:42:14.714Z,102289.98
2018-10-18T20:44:44.703Z,102292.91
2018-10-18T20:47:15.136Z,102297.73
2018-10-18T20:49:44.877Z,102288.90
2018-10-18T20:52:14.982Z,102287.02
2018-10-18T20:54:45.060Z,102282.20
2018-10-18T20:57:14.967Z,102289.70
2018-10-18T20:59:44.974Z,102286.22
2018-10-18T21:02:14.873Z,102283.80
2018-10-18T21:04:45.081Z,102283.27
2018-10-18T21:07:15.030Z,102291.58
2018-10-18T21:09:45.034Z,102284.09
2018-10-18T21:12:14.874Z,102281.14
2018-10-18T21:14:44.827Z,102285.69
2018-10-18T21:17:15.151Z,102277.66
2018-10-18T21:19:44.861Z,102277.11
2018-10-18T21:22:14.880Z,102277.66
2018-10-18T21:24:45.025Z,102274.17
2018-10-18T21:27:15.378Z,102274.16
2018-10-18T21:29:45.396Z,102268.80
2018-10-18T21:32:15.291Z,102271.48
2018-10-18T21:34:45.233Z,102267.46
2018-10-18T21:37:15.154Z,102271.48
2018-10-18T21:39:45.279Z,102266.12
2018-10-18T21:42:15.588Z,102266.94
2018-10-18T21:44:46.224Z,102269.08
2018-10-18T21:47:17.351Z,102266.41
2018-10-18T21:49:47.387Z,102267.45
2018-10-18T21:52:17.313Z,102264.79
2018-10-18T21:54:47.261Z,102267.47
2018-10-18T21:57:17.350Z,102273.35
2018-10-18T21:59:47.400Z,102269.62
2018-10-18T22:02:17.424Z,102274.45
2018-10-18T22:04:47.323Z,102277.66
2018-10-18T22:07:17.337Z,102277.92
2018-10-18T22:09:47.078Z,102272.55
2018-10-18T22:12:16.966Z,102269.61
2018-10-18T22:14:47.031Z,102262.66
2018-10-18T22:17:16.976Z,102268.81
2018-10-18T22:19:46.989Z,102263.19
2018-10-18T22:22:17.597Z,102262.39
2018-10-18T22:24:47.601Z,102265.85
2018-10-18T22:27:17.628Z,102264.80
2018-10-18T22:29:47.412Z,102261.56
2018-10-18T22:32:17.456Z,102258.09
2018-10-18T22:34:47.566Z,102255.66
2018-10-18T22:37:17.593Z,102259.14
2018-10-18T22:39:47.510Z,102257.58
2018-10-18T22:42:17.774Z,102254.05
2018-10-18T22:44:48.006Z,102256.23
2018-10-18T22:47:18.204Z,102250.59
2018-10-18T22:49:48.454Z,102254.34
2018-10-18T22:52:18.399Z,102249.27
2018-10-18T22:54:48.557Z,102259.41
2018-10-18T22:57:18.925Z,102253.81
2018-10-18T22:59:48.878Z,102254.05
2018-10-18T23:02:18.757Z,102249.25
2018-10-18T23:04:48.700Z,102254.07
2018-10-18T23:07:18.632Z,102249.48
2018-10-18T23:09:48.645Z,102248.95
2018-10-18T23:12:18.576Z,102240.92
2018-10-18T23:14:48.449Z,102244.95
2018-10-18T23:17:18.428Z,102247.34
2018-10-18T23:19:48.278Z,102242.79
2018-10-18T23:22:18.288Z,102240.92
2018-10-18T23:24:48.468Z,102237.72
2018-10-18T23:27:17.448Z,102244.69
2018-10-18T23:29:47.642Z,102244.41
2018-10-18T23:32:17.457Z,102254.06
2018-10-18T23:34:47.398Z,102253.52
2018-10-18T23:37:17.366Z,102245.75
2018-10-18T23:39:47.249Z,102243.06
2018-10-18T23:42:17.174Z,102239.60
2018-10-18T23:44:47.148Z,102243.08
2018-10-18T23:47:17.006Z,102242.79
2018-10-18T23:49:46.870Z,102239.31
2018-10-18T23:52:16.873Z,102227.79
2018-10-18T23:54:46.901Z,102233.41
2018-10-18T23:57:16.981Z,102231.30
2018-10-18T23:59:46.725Z,102227.01
